NCAR-RAP Real-Time Weather Data

Output produced by METARs form (08 May 2021  02:07 UTC)
found at http://weather.rap.ucar.edu/surface/
 
KMKL 080153Z AUTO 19005KT 10SM CLR 12/08 A3007 RMK AO2 SLP180 T01170083
KMKL 080053Z AUTO 20003KT 10SM CLR 14/08 A3006 RMK AO2 SLP178 T01440078
KMKL 072353Z 25006KT 10SM CLR 19/03 A3008 RMK AO2 SLP185 T01890033 10211 20189 58015
KMKL 072253Z 28008KT 10SM CLR 20/02 A3010 RMK AO2 SLP193 T02000022
KMKL 072153Z 26006KT 10SM CLR 21/04 A3011 RMK AO2 SLP195 T02060039
KMKL 072053Z 22005KT 10SM CLR 21/04 A3013 RMK AO2 SLP201 T02060039 58023
KMKL 071953Z 26007KT 10SM CLR 20/03 A3015 RMK AO2 SLP209 T02000033
KMKL 071853Z 26007KT 10SM CLR 20/03 A3018 RMK AO2 SLP216 T02000033
KMKL 071753Z VRB06KT 10SM CLR 20/04 A3020 RMK AO2 SLP223 T02000039 10200 20078 58006
KMKL 071653Z 21004KT 10SM CLR 18/02 A3021 RMK AO2 SLP228 T01830017
KMKL 071553Z VRB03KT 10SM CLR 18/04 A3022 RMK AO2 SLP232 T01780039
KMKL 071453Z 27006KT 10SM CLR 17/06 A3021 RMK AO2 SLP230 T01670056 51007
KMKL 071353Z 28004KT 10SM CLR 14/08 A3021 RMK AO2 SLP229 T01440078
KMKL 071253Z 27004KT 10SM CLR 12/08 A3021 RMK AO2 SLP229 T01170078
KMKL 071153Z 00000KT 10SM CLR 08/07 A3019 RMK AO2 SLP224 70017 T00780067 10117 20056 53014